Time;durP1;ratioP1;P1;durP2;ratioP2;P2;SDS_P1;SDS_P2;PMS_P1;PMS_P2;Temp;Humidity;BMP_temperature;BMP_pressure;BME280_temperature;BME280_humidity;BME280_pressure;Samples;Min_cycle;Max_cycle;Signal;HPM_P1;HPM_P2
2023/06/11 00:00:28;;;;;;;;;;;21.40;60.00;;;;;;6294732;28;19908;-71
2023/06/11 00:03:33;;;;;;;;;;;21.40;60.00;;;;;;6294804;28;19963;-71
2023/06/11 00:06:33;;;;;;;;;;;21.40;60.00;;;;;;6294759;28;19912;-71
2023/06/11 00:09:34;;;;;;;;;;;21.40;60.00;;;;;;6294837;28;20000;-71
2023/06/11 00:12:34;;;;;;;;;;;21.40;60.00;;;;;;6294815;28;19951;-71
2023/06/11 00:15:35;;;;;;;;;;;21.40;60.00;;;;;;6294917;28;20294;-71
2023/06/11 00:18:36;;;;;;;;;;;21.40;60.00;;;;;;6294595;28;20421;-71
2023/06/11 00:21:36;;;;;;;;;;;21.40;60.00;;;;;;6294801;28;19916;-71
2023/06/11 00:24:37;;;;;;;;;;;21.40;60.00;;;;;;6294593;28;19909;-72
2023/06/11 00:27:37;;;;;;;;;;;21.40;60.00;;;;;;6294453;28;19913;-71
2023/06/11 00:30:38;;;;;;;;;;;21.40;60.00;;;;;;6294166;28;19955;-71
2023/06/11 00:33:38;;;;;;;;;;;21.40;60.00;;;;;;6294840;28;19920;-71
2023/06/11 00:36:40;;;;;;;;;;;21.40;60.00;;;;;;6294531;28;19956;-72
2023/06/11 00:39:40;;;;;;;;;;;21.40;60.00;;;;;;6294550;28;19966;-71
2023/06/11 00:42:41;;;;;;;;;;;21.40;60.10;;;;;;6294427;28;19916;-71
2023/06/11 00:45:42;;;;;;;;;;;21.40;60.00;;;;;;6294139;28;19916;-72
2023/06/11 00:48:42;;;;;;;;;;;21.40;60.10;;;;;;6294009;28;19916;-73
2023/06/11 00:51:45;;;;;;;;;;;21.40;60.00;;;;;;6294278;28;19916;-71
2023/06/11 00:54:45;;;;;;;;;;;21.40;60.00;;;;;;6294261;28;19958;-71
2023/06/11 00:57:47;;;;;;;;;;;21.40;60.10;;;;;;6294420;28;19908;-71
2023/06/11 01:00:50;;;;;;;;;;;21.40;60.00;;;;;;6290562;28;20287;-71
2023/06/11 01:03:53;;;;;;;;;;;21.40;60.00;;;;;;6294153;28;19959;-71
2023/06/11 01:06:57;;;;;;;;;;;21.40;60.00;;;;;;6293899;28;19958;-72
2023/06/11 01:09:58;;;;;;;;;;;21.40;60.00;;;;;;6294022;28;19909;-71
2023/06/11 01:12:58;;;;;;;;;;;21.40;60.10;;;;;;6294172;28;19917;-72
2023/06/11 01:16:04;;;;;;;;;;;21.40;60.00;;;;;;6293961;28;19916;-71
2023/06/11 01:19:23;;;;;;;;;;;21.40;60.00;;;;;;6294106;28;20304;-71
2023/06/11 01:22:38;;;;;;;;;;;21.40;60.10;;;;;;6293698;28;19946;-71
2023/06/11 01:25:59;;;;;;;;;;;21.40;60.10;;;;;;6293759;28;20283;-72
2023/06/11 01:29:01;;;;;;;;;;;21.40;60.00;;;;;;6269214;28;19940;-71
2023/06/11 01:32:02;;;;;;;;;;;21.40;60.10;;;;;;6277984;28;19916;-72
2023/06/11 01:35:03;;;;;;;;;;;21.40;60.00;;;;;;6293773;28;19995;-71
2023/06/11 01:38:05;;;;;;;;;;;21.40;60.00;;;;;;6293485;28;19908;-71
2023/06/11 01:41:06;;;;;;;;;;;21.40;60.00;;;;;;6293628;28;20396;-71
2023/06/11 01:44:06;;;;;;;;;;;21.40;60.00;;;;;;6295424;28;19909;-71
2023/06/11 01:47:07;;;;;;;;;;;21.40;60.00;;;;;;6298077;28;19981;-71
2023/06/11 01:50:08;;;;;;;;;;;21.40;60.10;;;;;;6298107;28;19916;-73
2023/06/11 01:53:09;;;;;;;;;;;21.40;60.00;;;;;;6297718;28;20413;-71
2023/06/11 01:56:10;;;;;;;;;;;21.40;60.10;;;;;;6297702;28;19909;-71
2023/06/11 01:59:12;;;;;;;;;;;21.40;60.00;;;;;;6297917;28;19958;-71
2023/06/11 02:02:13;;;;;;;;;;;21.40;60.10;;;;;;6297664;28;19908;-71
2023/06/11 02:05:14;;;;;;;;;;;21.40;60.10;;;;;;6297611;28;19913;-71
2023/06/11 02:08:14;;;;;;;;;;;21.40;60.00;;;;;;6297868;28;19908;-71
2023/06/11 02:11:15;;;;;;;;;;;21.40;60.10;;;;;;6297397;28;19916;-71
2023/06/11 02:14:15;;;;;;;;;;;21.40;60.00;;;;;;6297737;28;19909;-71
2023/06/11 02:17:17;;;;;;;;;;;21.40;60.10;;;;;;6297472;28;19909;-71
2023/06/11 02:20:17;;;;;;;;;;;21.40;60.10;;;;;;6297362;28;20252;-71
2023/06/11 02:23:19;;;;;;;;;;;21.40;60.10;;;;;;6297480;28;19909;-71
2023/06/11 02:26:21;;;;;;;;;;;21.40;60.10;;;;;;6297108;28;20287;-71
2023/06/11 02:29:23;;;;;;;;;;;21.40;60.10;;;;;;6297072;28;20390;-71
2023/06/11 02:32:24;;;;;;;;;;;21.40;60.10;;;;;;6297143;28;19963;-71
2023/06/11 02:35:24;;;;;;;;;;;21.40;60.10;;;;;;6296902;28;19919;-71
2023/06/11 02:38:25;;;;;;;;;;;21.40;60.10;;;;;;6297170;28;19915;-71
2023/06/11 02:41:26;;;;;;;;;;;21.40;60.20;;;;;;6296828;28;20012;-71
2023/06/11 02:44:27;;;;;;;;;;;21.40;60.10;;;;;;6297017;28;19908;-72
2023/06/11 02:47:27;;;;;;;;;;;21.40;60.10;;;;;;6296665;28;20291;-71
2023/06/11 02:50:28;;;;;;;;;;;21.40;60.10;;;;;;6296877;28;20020;-71
2023/06/11 02:53:28;;;;;;;;;;;21.40;60.20;;;;;;6296454;28;19916;-71
2023/06/11 02:56:29;;;;;;;;;;;21.40;60.10;;;;;;6295723;28;19909;-71
2023/06/11 02:59:29;;;;;;;;;;;21.40;60.10;;;;;;6296475;28;20003;-72
2023/06/11 03:02:30;;;;;;;;;;;21.40;60.10;;;;;;6296262;28;20294;-72
2023/06/11 03:05:30;;;;;;;;;;;21.40;60.10;;;;;;6296275;28;20385;-71
2023/06/11 03:08:31;;;;;;;;;;;21.40;60.10;;;;;;6296572;28;19912;-71
2023/06/11 03:11:31;;;;;;;;;;;21.40;60.10;;;;;;6296041;28;19921;-71
2023/06/11 03:14:32;;;;;;;;;;;21.40;60.20;;;;;;6296298;28;20338;-71
2023/06/11 03:17:32;;;;;;;;;;;21.40;60.10;;;;;;6296166;28;19912;-71
2023/06/11 03:20:33;;;;;;;;;;;21.40;60.10;;;;;;6295662;28;20053;-71
2023/06/11 03:23:33;;;;;;;;;;;21.40;60.10;;;;;;6295639;28;19931;-74
2023/06/11 03:26:34;;;;;;;;;;;21.40;60.20;;;;;;6295662;28;20015;-71
2023/06/11 03:29:34;;;;;;;;;;;21.40;60.20;;;;;;6295298;28;19908;-71
2023/06/11 03:32:35;;;;;;;;;;;21.40;60.20;;;;;;6295264;28;19955;-71
2023/06/11 03:35:35;;;;;;;;;;;21.40;60.20;;;;;;6294682;28;19912;-70
2023/06/11 03:38:36;;;;;;;;;;;21.40;60.20;;;;;;6295326;28;19909;-71
2023/06/11 03:41:36;;;;;;;;;;;21.40;60.10;;;;;;6294337;28;19908;-72
2023/06/11 03:44:37;;;;;;;;;;;21.40;60.10;;;;;;6294915;28;20362;-71
2023/06/11 03:47:37;;;;;;;;;;;21.40;60.10;;;;;;6295064;28;19908;-71
2023/06/11 03:50:38;;;;;;;;;;;21.40;60.10;;;;;;6295392;28;19916;-71
2023/06/11 03:53:38;;;;;;;;;;;21.40;60.20;;;;;;6295050;28;20760;-71
2023/06/11 03:56:39;;;;;;;;;;;21.40;60.10;;;;;;6295236;28;19908;-71
2023/06/11 04:03:17;;;;;;;;;;;21.40;60.10;;;;;;6294764;28;19921;-71
2023/06/11 04:06:18;;;;;;;;;;;21.40;60.10;;;;;;6294410;28;19920;-71
2023/06/11 04:09:19;;;;;;;;;;;21.40;60.10;;;;;;6294945;28;19933;-71
2023/06/11 04:12:19;;;;;;;;;;;21.40;60.20;;;;;;6294764;28;19917;-71
2023/06/11 04:15:20;;;;;;;;;;;21.40;60.20;;;;;;6294827;28;19913;-72
2023/06/11 04:18:20;;;;;;;;;;;21.40;60.10;;;;;;6294784;28;20325;-71
2023/06/11 04:21:21;;;;;;;;;;;21.40;60.10;;;;;;6294792;28;19912;-72
2023/06/11 04:24:21;;;;;;;;;;;21.40;60.10;;;;;;6294932;28;19958;-71
2023/06/11 04:27:22;;;;;;;;;;;21.40;60.20;;;;;;6294510;28;19934;-71
2023/06/11 04:30:23;;;;;;;;;;;21.40;60.20;;;;;;6294575;28;19962;-72
2023/06/11 04:33:32;;;;;;;;;;;21.40;60.20;;;;;;6294428;28;19950;-71
2023/06/11 04:36:32;;;;;;;;;;;21.40;60.20;;;;;;6293988;28;20318;-71
2023/06/11 04:39:33;;;;;;;;;;;21.40;60.20;;;;;;6294847;28;19913;-71
2023/06/11 04:42:34;;;;;;;;;;;21.40;60.20;;;;;;6295819;28;19908;-71
2023/06/11 04:45:36;;;;;;;;;;;21.40;60.20;;;;;;6294542;28;20484;-71
2023/06/11 04:48:37;;;;;;;;;;;21.40;60.20;;;;;;6294329;28;19913;-71
2023/06/11 04:51:40;;;;;;;;;;;21.40;60.20;;;;;;6294190;28;19942;-72
2023/06/11 04:54:41;;;;;;;;;;;21.40;60.20;;;;;;6294387;28;19912;-71
2023/06/11 04:57:42;;;;;;;;;;;21.40;60.20;;;;;;6294409;28;19935;-71
2023/06/11 05:00:46;;;;;;;;;;;21.40;60.20;;;;;;6293939;28;20369;-71
2023/06/11 05:03:46;;;;;;;;;;;21.40;60.10;;;;;;6293992;28;19930;-71
2023/06/11 05:06:47;;;;;;;;;;;21.40;60.20;;;;;;6293817;28;19908;-71
2023/06/11 05:09:47;;;;;;;;;;;21.40;60.20;;;;;;6294239;28;19962;-72
2023/06/11 05:12:48;;;;;;;;;;;21.40;60.20;;;;;;6293979;28;20402;-71
2023/06/11 05:15:48;;;;;;;;;;;21.40;60.20;;;;;;6294411;28;20058;-71
2023/06/11 05:18:49;;;;;;;;;;;21.40;60.10;;;;;;6296078;28;20457;-71
2023/06/11 05:21:49;;;;;;;;;;;21.40;60.20;;;;;;6298901;28;19913;-71
2023/06/11 05:24:50;;;;;;;;;;;21.40;60.20;;;;;;6298796;28;19912;-72
2023/06/11 05:27:52;;;;;;;;;;;21.40;60.20;;;;;;6298576;28;19912;-71
2023/06/11 05:30:53;;;;;;;;;;;21.40;60.20;;;;;;6298656;28;19958;-71
2023/06/11 05:33:53;;;;;;;;;;;21.40;60.20;;;;;;6298712;28;19913;-71
2023/06/11 05:36:54;;;;;;;;;;;21.40;60.20;;;;;;6298317;28;20008;-71
2023/06/11 05:39:55;;;;;;;;;;;21.40;60.20;;;;;;6298386;28;19913;-72
2023/06/11 05:42:55;;;;;;;;;;;21.40;60.10;;;;;;6298251;28;20397;-71
2023/06/11 05:45:56;;;;;;;;;;;21.40;60.20;;;;;;6296347;28;19917;-71
2023/06/11 05:48:57;;;;;;;;;;;21.40;60.20;;;;;;6298104;28;19934;-72
2023/06/11 05:51:58;;;;;;;;;;;21.40;60.20;;;;;;6297436;28;19916;-71
2023/06/11 05:54:58;;;;;;;;;;;21.40;60.20;;;;;;6298090;28;20425;-71
2023/06/11 05:57:58;;;;;;;;;;;21.40;60.20;;;;;;6297836;28;19971;-71
2023/06/11 06:01:02;;;;;;;;;;;21.40;60.10;;;;;;6297658;28;19908;-71
2023/06/11 06:04:03;;;;;;;;;;;21.40;60.20;;;;;;6297706;28;19921;-72
2023/06/11 06:07:03;;;;;;;;;;;21.40;60.10;;;;;;6298007;28;19909;-71
2023/06/11 06:10:04;;;;;;;;;;;21.40;60.20;;;;;;6297642;28;19909;-71
2023/06/11 06:13:05;;;;;;;;;;;21.40;60.20;;;;;;6285477;28;20299;-71
2023/06/11 06:16:05;;;;;;;;;;;21.40;60.20;;;;;;6292196;28;19931;-71
2023/06/11 06:19:06;;;;;;;;;;;21.40;60.10;;;;;;6300474;28;20364;-71
2023/06/11 06:22:07;;;;;;;;;;;21.40;60.20;;;;;;6283505;28;19948;-72
2023/06/11 06:25:07;;;;;;;;;;;21.40;60.20;;;;;;6312621;28;19935;-71
2023/06/11 06:28:08;;;;;;;;;;;21.40;60.20;;;;;;6301789;28;19916;-71
2023/06/11 06:31:12;;;;;;;;;;;21.50;60.70;;;;;;6291391;28;19925;-71
2023/06/11 06:34:13;;;;;;;;;;;21.40;60.30;;;;;;6295003;28;19917;-71
2023/06/11 06:37:13;;;;;;;;;;;21.50;60.60;;;;;;6295246;28;19957;-72
2023/06/11 06:40:14;;;;;;;;;;;21.40;60.20;;;;;;6306875;28;19908;-70
2023/06/11 06:43:14;;;;;;;;;;;21.50;60.20;;;;;;6295857;28;20374;-71
2023/06/11 06:46:15;;;;;;;;;;;21.40;60.20;;;;;;6294364;28;19909;-71
2023/06/11 06:49:15;;;;;;;;;;;21.40;60.10;;;;;;6275022;28;19960;-71
2023/06/11 06:52:16;;;;;;;;;;;21.40;60.20;;;;;;6285309;28;19963;-71
2023/06/11 06:55:16;;;;;;;;;;;21.40;60.20;;;;;;6282528;28;19916;-71
2023/06/11 06:58:17;;;;;;;;;;;21.40;60.20;;;;;;6277630;28;19913;-72
2023/06/11 07:01:17;;;;;;;;;;;21.40;60.20;;;;;;6289451;28;19908;-71
2023/06/11 07:04:18;;;;;;;;;;;21.40;60.20;;;;;;6275911;28;20373;-71
2023/06/11 07:07:18;;;;;;;;;;;21.40;60.20;;;;;;6307303;28;19920;-72
2023/06/11 07:10:19;;;;;;;;;;;21.40;60.20;;;;;;6280329;28;19953;-72
2023/06/11 07:13:20;;;;;;;;;;;21.40;60.20;;;;;;6280011;28;20011;-72
2023/06/11 07:16:20;;;;;;;;;;;21.40;60.20;;;;;;6288684;28;20610;-72
2023/06/11 07:19:21;;;;;;;;;;;21.40;60.20;;;;;;6311434;28;19934;-72
2023/06/11 07:22:21;;;;;;;;;;;21.40;60.20;;;;;;6314061;28;19908;-71
2023/06/11 07:25:22;;;;;;;;;;;21.40;60.20;;;;;;6280323;28;19916;-71
2023/06/11 07:28:23;;;;;;;;;;;21.40;60.20;;;;;;6277535;28;19915;-71
2023/06/11 07:31:23;;;;;;;;;;;21.40;60.40;;;;;;6293830;28;20317;-71
2023/06/11 07:34:24;;;;;;;;;;;21.50;60.00;;;;;;6272961;28;19948;-71
2023/06/11 07:37:24;;;;;;;;;;;21.70;60.00;;;;;;6291890;28;19935;-71
2023/06/11 07:40:25;;;;;;;;;;;21.70;60.10;;;;;;6292044;28;19944;-71
2023/06/11 07:43:25;;;;;;;;;;;21.70;60.00;;;;;;6291189;28;19909;-71
2023/06/11 07:46:26;;;;;;;;;;;21.70;59.90;;;;;;6291571;28;19955;-72
2023/06/11 07:49:26;;;;;;;;;;;21.60;59.90;;;;;;6291463;28;20268;-70
2023/06/11 07:52:27;;;;;;;;;;;21.70;60.00;;;;;;6291013;28;19916;-71
2023/06/11 07:55:27;;;;;;;;;;;21.70;59.80;;;;;;6291063;28;19917;-70
2023/06/11 07:58:28;;;;;;;;;;;21.70;59.80;;;;;;6291363;28;19913;-71
2023/06/11 08:01:28;;;;;;;;;;;21.70;59.70;;;;;;6290916;28;20328;-71
2023/06/11 08:04:29;;;;;;;;;;;21.70;59.80;;;;;;6290087;28;19932;-71
2023/06/11 08:07:29;;;;;;;;;;;21.70;59.80;;;;;;6291098;28;19916;-70
2023/06/11 08:10:31;;;;;;;;;;;21.70;59.80;;;;;;6289200;28;20379;-70
2023/06/11 08:13:34;;;;;;;;;;;21.70;59.80;;;;;;6291477;28;19923;-70
2023/06/11 08:16:35;;;;;;;;;;;21.70;59.80;;;;;;6292350;28;19935;-71
2023/06/11 08:19:36;;;;;;;;;;;21.70;59.80;;;;;;6277712;28;19943;-71
2023/06/11 08:22:36;;;;;;;;;;;21.70;59.80;;;;;;6269148;28;19909;-70
2023/06/11 08:25:37;;;;;;;;;;;21.70;59.80;;;;;;6293638;28;19908;-70
2023/06/11 08:28:37;;;;;;;;;;;21.70;59.80;;;;;;6294162;28;20358;-71
2023/06/11 08:31:38;;;;;;;;;;;21.70;59.70;;;;;;6294210;28;19924;-71
2023/06/11 08:34:38;;;;;;;;;;;21.70;59.70;;;;;;6294215;28;19932;-71
2023/06/11 08:37:38;;;;;;;;;;;21.70;59.70;;;;;;6294531;28;19909;-72
2023/06/11 08:40:40;;;;;;;;;;;21.70;59.70;;;;;;6294163;28;19908;-71
2023/06/11 08:43:41;;;;;;;;;;;21.70;59.70;;;;;;6294165;28;19947;-71
2023/06/11 08:46:43;;;;;;;;;;;21.70;59.70;;;;;;6294636;28;19918;-71
2023/06/11 08:49:45;;;;;;;;;;;21.70;59.80;;;;;;6293941;28;19966;-71
2023/06/11 08:52:48;;;;;;;;;;;21.70;59.80;;;;;;6294469;28;19923;-71
2023/06/11 08:55:48;;;;;;;;;;;21.70;59.80;;;;;;6299227;28;19979;-72
2023/06/11 08:58:49;;;;;;;;;;;21.70;59.80;;;;;;6299431;28;20351;-71
2023/06/11 09:01:51;;;;;;;;;;;21.70;59.80;;;;;;6299218;28;19909;-70
2023/06/11 09:04:51;;;;;;;;;;;21.70;59.80;;;;;;6299098;28;19924;-71
2023/06/11 09:07:52;;;;;;;;;;;21.60;59.80;;;;;;6299210;28;19915;-71
2023/06/11 09:10:53;;;;;;;;;;;21.60;59.80;;;;;;6298875;28;19915;-70
2023/06/11 09:13:55;;;;;;;;;;;21.60;59.90;;;;;;6298785;28;19920;-70
2023/06/11 09:16:55;;;;;;;;;;;21.70;59.90;;;;;;6298888;28;19930;-71
2023/06/11 09:19:56;;;;;;;;;;;21.60;59.80;;;;;;6298952;28;19912;-71
2023/06/11 09:22:57;;;;;;;;;;;21.60;59.90;;;;;;6298810;28;20066;-71
2023/06/11 09:26:01;;;;;;;;;;;21.60;59.80;;;;;;6298132;28;19915;-72
2023/06/11 09:29:02;;;;;;;;;;;21.60;59.80;;;;;;6298629;28;20449;-71
2023/06/11 09:32:03;;;;;;;;;;;21.60;59.90;;;;;;6298489;28;20018;-71
2023/06/11 09:35:05;;;;;;;;;;;21.60;59.90;;;;;;6298290;28;20370;-71
2023/06/11 09:38:06;;;;;;;;;;;21.60;59.90;;;;;;6298107;28;19919;-71
2023/06/11 09:41:06;;;;;;;;;;;21.60;60.00;;;;;;6298422;28;19908;-71
2023/06/11 09:44:07;;;;;;;;;;;21.60;60.00;;;;;;6297726;28;19947;-71
2023/06/11 09:47:09;;;;;;;;;;;21.60;60.00;;;;;;6298874;28;19915;-71
2023/06/11 09:50:10;;;;;;;;;;;21.60;60.10;;;;;;6298014;28;19912;-70
2023/06/11 09:53:12;;;;;;;;;;;21.60;60.10;;;;;;6298056;28;19920;-71
2023/06/11 09:56:13;;;;;;;;;;;21.60;60.10;;;;;;6297579;28;20068;-71
2023/06/11 09:59:16;;;;;;;;;;;21.60;60.20;;;;;;6297840;28;19908;-70
2023/06/11 10:02:17;;;;;;;;;;;21.50;60.10;;;;;;6297812;28;19933;-71
2023/06/11 10:05:17;;;;;;;;;;;21.50;60.10;;;;;;6297428;28;20566;-71
2023/06/11 10:08:20;;;;;;;;;;;21.50;60.10;;;;;;6297921;28;19908;-71
2023/06/11 10:11:22;;;;;;;;;;;21.50;60.10;;;;;;6297191;28;19920;-71
2023/06/11 10:14:22;;;;;;;;;;;21.50;60.10;;;;;;6297436;28;19915;-71
2023/06/11 10:17:23;;;;;;;;;;;21.50;60.20;;;;;;6295418;28;20274;-71
2023/06/11 10:20:28;;;;;;;;;;;21.50;60.20;;;;;;6297695;28;19916;-73
2023/06/11 10:23:36;;;;;;;;;;;21.50;60.20;;;;;;6297707;28;19958;-71
2023/06/11 10:26:36;;;;;;;;;;;21.50;60.20;;;;;;6296990;28;19967;-70
2023/06/11 10:29:41;;;;;;;;;;;21.50;60.20;;;;;;6296958;28;19930;-71
2023/06/11 10:32:53;;;;;;;;;;;21.50;60.20;;;;;;6297070;28;19924;-71
2023/06/11 10:36:00;;;;;;;;;;;21.50;60.20;;;;;;6296840;28;19908;-72
2023/06/11 10:39:04;;;;;;;;;;;21.50;60.20;;;;;;6272464;28;20375;-71
2023/06/11 10:42:05;;;;;;;;;;;21.50;60.20;;;;;;6289871;28;19916;-71
2023/06/11 10:45:08;;;;;;;;;;;21.50;60.20;;;;;;6296604;28;19909;-71
2023/06/11 10:48:09;;;;;;;;;;;21.50;60.20;;;;;;6296973;28;19908;-71
2023/06/11 10:51:12;;;;;;;;;;;21.50;60.20;;;;;;6296366;28;19956;-71
2023/06/11 10:54:22;;;;;;;;;;;21.50;60.20;;;;;;6296997;28;19908;-71
2023/06/11 10:57:24;;;;;;;;;;;21.50;60.20;;;;;;6296431;28;19954;-71
2023/06/11 11:00:32;;;;;;;;;;;21.50;60.20;;;;;;6296398;28;20363;-71
2023/06/11 11:03:33;;;;;;;;;;;21.50;60.20;;;;;;6296512;28;19962;-70
2023/06/11 11:06:36;;;;;;;;;;;21.50;61.10;;;;;;6296534;28;19919;-71
2023/06/11 11:09:37;;;;;;;;;;;21.50;60.40;;;;;;6296046;28;20356;-70
2023/06/11 11:12:45;;;;;;;;;;;21.40;60.10;;;;;;6295876;28;19924;-71
2023/06/11 11:15:46;;;;;;;;;;;21.50;60.20;;;;;;6295415;28;19919;-71
2023/06/11 11:18:47;;;;;;;;;;;21.50;60.30;;;;;;6296074;28;19908;-70
2023/06/11 11:21:51;;;;;;;;;;;21.40;61.10;;;;;;6296118;28;19908;-71
2023/06/11 11:24:51;;;;;;;;;;;21.50;60.20;;;;;;6295673;28;19933;-71
2023/06/11 11:27:52;;;;;;;;;;;21.50;60.20;;;;;;6295981;28;19997;-71
2023/06/11 11:30:53;;;;;;;;;;;21.40;60.20;;;;;;6295467;28;19908;-72
2023/06/11 11:33:54;;;;;;;;;;;21.50;60.30;;;;;;6295721;28;19921;-71
2023/06/11 11:36:55;;;;;;;;;;;21.50;60.20;;;;;;6295162;28;19908;-71
2023/06/11 11:39:56;;;;;;;;;;;21.50;60.30;;;;;;6295845;28;19909;-71
2023/06/11 11:42:57;;;;;;;;;;;21.50;60.20;;;;;;6295379;28;20363;-71
2023/06/11 11:45:57;;;;;;;;;;;21.40;60.10;;;;;;6295649;28;19909;-71
2023/06/11 11:48:58;;;;;;;;;;;21.50;60.20;;;;;;6295265;28;20228;-71
2023/06/11 11:52:00;;;;;;;;;;;21.50;60.20;;;;;;6295086;28;19916;-71
2023/06/11 11:55:01;;;;;;;;;;;21.40;60.10;;;;;;6295211;28;19908;-71
2023/06/11 11:58:02;;;;;;;;;;;21.50;60.20;;;;;;6295088;28;20340;-71
2023/06/11 12:01:03;;;;;;;;;;;21.50;60.30;;;;;;6295112;28;19915;-71
2023/06/11 12:04:05;;;;;;;;;;;21.50;60.30;;;;;;6295170;28;20037;-71
2023/06/11 12:07:06;;;;;;;;;;;21.40;60.20;;;;;;6294734;28;19908;-70
2023/06/11 12:10:07;;;;;;;;;;;21.40;60.20;;;;;;6295127;28;20286;-71
2023/06/11 12:13:07;;;;;;;;;;;21.50;60.20;;;;;;6294675;28;19925;-70
2023/06/11 12:16:08;;;;;;;;;;;21.50;60.30;;;;;;6294678;28;20374;-71
2023/06/11 12:19:08;;;;;;;;;;;21.40;60.20;;;;;;6294765;28;19909;-71
2023/06/11 12:22:10;;;;;;;;;;;21.40;60.20;;;;;;6294613;28;19987;-71
2023/06/11 12:25:10;;;;;;;;;;;21.50;60.20;;;;;;6294828;28;19947;-71
2023/06/11 12:28:11;;;;;;;;;;;21.40;60.20;;;;;;6294405;28;19913;-71
2023/06/11 12:31:11;;;;;;;;;;;21.40;60.10;;;;;;6293968;28;19908;-71
2023/06/11 12:34:15;;;;;;;;;;;21.40;60.20;;;;;;6294746;28;19915;-71
2023/06/11 12:37:16;;;;;;;;;;;21.40;60.20;;;;;;6294140;28;19936;-71
2023/06/11 12:40:17;;;;;;;;;;;21.40;60.20;;;;;;6294515;28;19915;-71
2023/06/11 12:43:17;;;;;;;;;;;21.40;60.20;;;;;;6294249;28;19908;-71
2023/06/11 12:46:18;;;;;;;;;;;21.50;60.30;;;;;;6294386;28;19954;-71
2023/06/11 12:49:18;;;;;;;;;;;21.40;60.20;;;;;;6294450;28;20003;-71
2023/06/11 12:52:19;;;;;;;;;;;21.50;60.30;;;;;;6293919;28;19916;-71
2023/06/11 12:55:20;;;;;;;;;;;21.50;60.30;;;;;;6294400;28;19909;-71
2023/06/11 12:58:20;;;;;;;;;;;21.40;60.20;;;;;;6294379;28;19962;-71
2023/06/11 13:01:21;;;;;;;;;;;21.40;60.20;;;;;;6294175;28;19912;-72
2023/06/11 13:04:22;;;;;;;;;;;21.40;60.20;;;;;;6294080;28;19966;-70
2023/06/11 13:07:22;;;;;;;;;;;21.50;60.20;;;;;;6294428;28;19962;-71
2023/06/11 13:10:25;;;;;;;;;;;21.50;60.00;;;;;;6294301;28;19909;-72
2023/06/11 13:13:25;;;;;;;;;;;21.50;60.30;;;;;;6293719;28;20015;-72
2023/06/11 13:16:26;;;;;;;;;;;21.50;60.30;;;;;;6293306;28;19908;-71
2023/06/11 13:19:26;;;;;;;;;;;21.50;60.40;;;;;;6277997;28;20007;-71
2023/06/11 13:22:27;;;;;;;;;;;21.50;61.50;;;;;;6286127;28;19909;-71
2023/06/11 13:25:27;;;;;;;;;;;21.50;60.50;;;;;;6300521;28;19908;-71
2023/06/11 13:28:28;;;;;;;;;;;21.50;60.40;;;;;;6292434;28;19908;-72
2023/06/11 13:31:28;;;;;;;;;;;21.50;60.40;;;;;;6307974;28;20496;-72
2023/06/11 13:34:29;;;;;;;;;;;21.50;60.40;;;;;;6303727;28;20008;-71
2023/06/11 13:37:30;;;;;;;;;;;21.50;60.40;;;;;;6291729;28;19955;-72
2023/06/11 13:40:30;;;;;;;;;;;21.50;60.40;;;;;;6295104;28;20321;-72
2023/06/11 13:43:31;;;;;;;;;;;21.50;60.40;;;;;;6292564;28;19924;-72
2023/06/11 13:46:31;;;;;;;;;;;21.50;60.40;;;;;;6284411;28;20264;-73
2023/06/11 13:49:32;;;;;;;;;;;21.50;60.40;;;;;;6293498;28;19935;-71
2023/06/11 13:52:32;;;;;;;;;;;21.50;60.40;;;;;;6294134;28;19920;-72
2023/06/11 13:55:33;;;;;;;;;;;21.50;60.40;;;;;;6294346;28;19966;-71
2023/06/11 13:58:33;;;;;;;;;;;21.50;60.40;;;;;;6293991;28;20366;-72
2023/06/11 14:01:34;;;;;;;;;;;21.50;60.40;;;;;;6294156;28;19915;-71
2023/06/11 14:04:35;;;;;;;;;;;21.50;60.40;;;;;;6294155;28;20363;-72
2023/06/11 14:07:35;;;;;;;;;;;21.50;60.40;;;;;;6293383;28;19915;-72
2023/06/11 14:10:36;;;;;;;;;;;21.50;60.40;;;;;;6294024;28;19936;-71
2023/06/11 14:13:36;;;;;;;;;;;21.50;60.40;;;;;;6293764;28;20534;-71
2023/06/11 14:16:37;;;;;;;;;;;21.50;60.40;;;;;;6293495;28;19912;-71
2023/06/11 14:19:37;;;;;;;;;;;21.40;60.20;;;;;;6294043;28;19915;-71
2023/06/11 14:22:38;;;;;;;;;;;21.50;60.40;;;;;;6293484;28;19950;-72
2023/06/11 14:25:39;;;;;;;;;;;21.50;60.40;;;;;;6293589;28;19912;-72
2023/06/11 14:28:39;;;;;;;;;;;21.40;60.30;;;;;;6293891;28;19915;-72
2023/06/11 14:31:40;;;;;;;;;;;21.50;60.40;;;;;;6293305;28;19920;-71
2023/06/11 14:34:40;;;;;;;;;;;21.40;60.30;;;;;;6293833;28;19912;-71
2023/06/11 14:37:41;;;;;;;;;;;21.40;60.30;;;;;;6293201;28;20004;-71
2023/06/11 14:40:41;;;;;;;;;;;21.50;61.20;;;;;;6293400;28;20266;-72
2023/06/11 14:43:42;;;;;;;;;;;21.50;60.40;;;;;;6293778;28;20042;-72
2023/06/11 14:46:43;;;;;;;;;;;21.40;60.30;;;;;;6292391;28;19951;-72
2023/06/11 14:49:43;;;;;;;;;;;21.50;60.40;;;;;;6293713;28;19917;-72
2023/06/11 14:52:44;;;;;;;;;;;21.40;60.30;;;;;;6291666;28;19921;-71
2023/06/11 14:55:45;;;;;;;;;;;21.50;60.40;;;;;;6292673;28;19915;-71
2023/06/11 14:58:45;;;;;;;;;;;21.50;60.40;;;;;;6281756;28;19916;-73
2023/06/11 15:01:46;;;;;;;;;;;21.40;60.30;;;;;;6292805;28;19912;-71
2023/06/11 15:04:46;;;;;;;;;;;21.50;60.40;;;;;;6292148;28;19924;-71
2023/06/11 15:07:47;;;;;;;;;;;21.40;60.30;;;;;;6291711;28;20382;-71
2023/06/11 15:10:47;;;;;;;;;;;21.40;60.30;;;;;;6292525;28;19909;-71
2023/06/11 15:13:48;;;;;;;;;;;21.40;60.30;;;;;;6291584;28;19947;-72
2023/06/11 15:16:50;;;;;;;;;;;21.40;60.30;;;;;;6290647;28;21711;-71
2023/06/11 15:19:51;;;;;;;;;;;21.50;60.40;;;;;;6282009;28;19920;-71
2023/06/11 15:22:51;;;;;;;;;;;21.40;60.30;;;;;;6291103;28;19908;-71
2023/06/11 15:25:52;;;;;;;;;;;21.40;60.30;;;;;;6292191;28;19908;-72
2023/06/11 15:28:52;;;;;;;;;;;21.40;61.10;;;;;;6292241;28;19969;-72
2023/06/11 15:31:55;;;;;;;;;;;21.40;60.30;;;;;;6291659;28;19924;-71
2023/06/11 15:34:55;;;;;;;;;;;21.40;60.30;;;;;;6291743;28;19915;-71
2023/06/11 15:37:56;;;;;;;;;;;21.40;60.30;;;;;;6291210;28;19912;-72
2023/06/11 15:40:56;;;;;;;;;;;21.50;60.40;;;;;;6291711;28;19995;-71
2023/06/11 15:43:58;;;;;;;;;;;21.40;60.30;;;;;;6291544;28;20363;-71
2023/06/11 15:46:59;;;;;;;;;;;21.50;60.40;;;;;;6291674;28;19914;-71
2023/06/11 15:49:59;;;;;;;;;;;21.50;60.40;;;;;;6291869;28;20240;-72
2023/06/11 15:53:00;;;;;;;;;;;21.50;60.40;;;;;;6290905;28;19917;-71
2023/06/11 15:56:01;;;;;;;;;;;21.40;60.30;;;;;;6291179;28;19908;-72
2023/06/11 15:59:01;;;;;;;;;;;21.50;60.40;;;;;;6290909;28;19958;-71
2023/06/11 16:02:02;;;;;;;;;;;21.50;60.40;;;;;;6290373;28;19919;-71
2023/06/11 16:05:02;;;;;;;;;;;21.40;60.30;;;;;;6291028;28;20145;-72
2023/06/11 16:08:03;;;;;;;;;;;21.40;60.30;;;;;;6290204;28;20291;-71
2023/06/11 16:11:04;;;;;;;;;;;21.50;60.40;;;;;;6291517;28;19909;-71
2023/06/11 16:14:04;;;;;;;;;;;21.40;60.30;;;;;;6290292;28;20027;-72
2023/06/11 16:17:05;;;;;;;;;;;21.40;60.30;;;;;;6290552;28;19962;-71
2023/06/11 16:20:06;;;;;;;;;;;21.50;60.40;;;;;;6290790;28;19909;-71
2023/06/11 16:23:06;;;;;;;;;;;21.50;60.50;;;;;;6289721;28;19912;-71
2023/06/11 16:26:07;;;;;;;;;;;21.40;60.40;;;;;;6289688;28;19935;-71
2023/06/11 16:29:07;;;;;;;;;;;21.50;60.40;;;;;;6289072;28;20280;-72
2023/06/11 16:32:11;;;;;;;;;;;21.40;60.40;;;;;;6289765;28;19929;-71
2023/06/11 16:35:11;;;;;;;;;;;21.50;60.40;;;;;;6289527;28;19912;-72
2023/06/11 16:38:12;;;;;;;;;;;21.50;60.40;;;;;;6289480;28;19915;-72
2023/06/11 16:41:13;;;;;;;;;;;21.40;60.30;;;;;;6290960;28;19912;-72
2023/06/11 16:44:14;;;;;;;;;;;21.40;60.40;;;;;;6290270;28;19908;-72
2023/06/11 16:47:15;;;;;;;;;;;21.50;60.40;;;;;;6290627;28;19959;-72
2023/06/11 16:50:15;;;;;;;;;;;21.40;60.30;;;;;;6290069;28;20341;-71
2023/06/11 16:53:16;;;;;;;;;;;21.40;60.30;;;;;;6290685;28;19970;-71
2023/06/11 16:56:18;;;;;;;;;;;21.50;60.40;;;;;;6289353;28;19920;-71
2023/06/11 16:59:19;;;;;;;;;;;21.50;60.40;;;;;;6289620;28;19996;-71
2023/06/11 17:02:19;;;;;;;;;;;21.50;60.40;;;;;;6287290;28;19908;-71
2023/06/11 17:05:20;;;;;;;;;;;21.50;60.40;;;;;;6290509;28;19916;-72
2023/06/11 17:08:21;;;;;;;;;;;21.40;60.30;;;;;;6289694;28;19912;-72
2023/06/11 17:11:21;;;;;;;;;;;21.50;60.40;;;;;;6291349;28;20448;-72
2023/06/11 17:14:22;;;;;;;;;;;21.40;60.30;;;;;;6290743;28;20350;-72
2023/06/11 17:17:22;;;;;;;;;;;21.50;60.50;;;;;;6295887;28;19916;-71
2023/06/11 17:20:23;;;;;;;;;;;21.40;60.40;;;;;;6309430;28;20278;-72
2023/06/11 17:23:24;;;;;;;;;;;21.40;60.40;;;;;;6296328;28;19908;-72
2023/06/11 17:26:24;;;;;;;;;;;21.50;60.40;;;;;;6297027;28;19908;-71
2023/06/11 17:29:25;;;;;;;;;;;21.40;60.40;;;;;;6297536;28;19931;-71
2023/06/11 17:32:26;;;;;;;;;;;21.40;60.40;;;;;;6292037;28;19924;-71
2023/06/11 17:35:27;;;;;;;;;;;21.40;60.40;;;;;;6272712;28;19912;-73